createdAt,value
2018-03-07T01:43:09.177Z,78.76
2018-03-07T01:43:09.742Z,79.05
2018-03-07T01:43:10.342Z,78.95
2018-03-07T01:43:10.942Z,79.14
2018-03-07T01:43:11.542Z,78.67
2018-03-07T01:43:12.141Z,78.58
2018-03-07T01:43:12.741Z,78.67
2018-03-07T01:43:13.342Z,79.14
2018-03-07T01:44:06.832Z,78.20
2018-03-07T01:44:07.396Z,78.10
2018-03-07T01:44:07.996Z,78.29
2018-03-07T01:44:08.595Z,78.10
2018-03-07T01:44:09.196Z,78.20
2018-03-07T01:44:09.795Z,78.01
2018-03-07T01:44:10.395Z,78.29
2018-03-07T01:44:10.998Z,78.10
2018-03-07T01:45:05.479Z,77.72
2018-03-07T01:45:06.069Z,77.06
2018-03-07T01:45:06.671Z,77.06
2018-03-07T01:45:07.269Z,77.15
2018-03-07T01:45:07.870Z,76.97
2018-03-07T01:45:08.467Z,76.78
2018-03-07T01:45:09.068Z,76.87
2018-03-07T01:45:09.668Z,76.68
2018-03-07T01:46:03.129Z,76.68
2018-03-07T01:46:03.725Z,76.31
2018-03-07T01:46:04.324Z,76.68
2018-03-07T01:46:04.929Z,76.12
2018-03-07T01:46:05.524Z,76.31
2018-03-07T01:46:06.123Z,76.12
2018-03-07T01:46:06.723Z,76.12
2018-03-07T01:46:07.323Z,76.40
2018-03-07T01:47:01.803Z,72.33
2018-03-07T01:47:02.402Z,72.43
2018-03-07T01:47:03.001Z,72.52
2018-03-07T01:47:03.602Z,72.33
2018-03-07T01:47:04.205Z,72.14
2018-03-07T01:47:04.799Z,72.24
2018-03-07T01:47:05.400Z,72.24
2018-03-07T01:47:05.999Z,72.33
2018-03-07T01:47:59.455Z,71.11
2018-03-07T01:48:00.053Z,71.20
2018-03-07T01:48:00.654Z,71.20
2018-03-07T01:48:01.253Z,71.20
2018-03-07T01:48:01.852Z,71.20
2018-03-07T01:48:02.452Z,71.30
2018-03-07T01:48:03.051Z,71.20
2018-03-07T01:48:03.652Z,71.20
2018-03-07T01:48:57.108Z,71.30
2018-03-07T01:48:57.707Z,71.20
2018-03-07T01:48:58.305Z,71.20
2018-03-07T01:48:58.906Z,71.30
2018-03-07T01:48:59.504Z,71.20
2018-03-07T01:49:00.104Z,71.20
2018-03-07T01:49:00.708Z,71.20
2018-03-07T01:49:01.307Z,71.20
2018-03-07T01:49:54.793Z,70.25
2018-03-07T01:49:55.357Z,70.44
2018-03-07T01:49:55.956Z,70.44
2018-03-07T01:49:56.569Z,70.25
2018-03-07T01:49:57.154Z,70.16
2018-03-07T01:49:57.755Z,70.25
2018-03-07T01:49:58.377Z,70.35
2018-03-07T01:49:58.954Z,70.25
2018-03-07T01:50:56.406Z,69.68
2018-03-07T01:50:57.003Z,69.49
2018-03-07T01:50:57.601Z,69.68
2018-03-07T01:51:51.599Z,69.97
2018-03-07T01:51:52.194Z,70.16
2018-03-07T01:51:52.796Z,69.87
2018-03-07T01:51:53.397Z,70.25
2018-03-07T01:51:53.998Z,69.87
2018-03-07T01:51:54.595Z,69.87
2018-03-07T01:51:55.196Z,69.87
2018-03-07T01:52:49.149Z,70.82
2018-03-07T01:52:49.746Z,70.82
2018-03-07T01:52:50.346Z,71.11
2018-03-07T01:52:50.946Z,70.82
2018-03-07T01:52:51.546Z,70.82
2018-03-07T01:52:52.145Z,70.82
2018-03-07T01:52:52.743Z,70.92
2018-03-07T01:53:46.186Z,71.20
2018-03-07T01:53:46.784Z,71.20
2018-03-07T01:53:47.385Z,71.20
2018-03-07T01:53:47.985Z,71.20
2018-03-07T01:53:48.584Z,71.30
2018-03-07T01:53:49.182Z,71.20
2018-03-07T01:53:49.782Z,71.20
2018-03-07T01:53:50.382Z,71.20
2018-03-07T01:54:43.837Z,72.33
2018-03-07T01:54:44.437Z,72.33
2018-03-07T01:54:45.036Z,72.33
2018-03-07T01:54:45.636Z,72.14
2018-03-07T01:54:46.234Z,72.33
2018-03-07T01:54:46.839Z,72.14
2018-03-07T01:54:47.435Z,72.52
2018-03-07T01:54:48.035Z,72.62
2018-03-07T01:55:41.522Z,73.66
2018-03-07T01:55:42.087Z,73.66
2018-03-07T01:55:42.686Z,73.56
2018-03-07T01:55:43.286Z,73.66
2018-03-07T01:55:43.896Z,73.66
2018-03-07T01:55:44.484Z,73.66
2018-03-07T01:55:45.085Z,73.66
2018-03-07T01:55:45.686Z,73.56
2018-03-07T01:56:39.162Z,74.22
2018-03-07T01:56:39.849Z,74.51
2018-03-07T01:56:40.386Z,74.79
2018-03-07T01:56:40.942Z,74.22
2018-03-07T01:56:41.556Z,74.98
2018-03-07T01:56:42.180Z,74.79
2018-03-07T01:56:42.738Z,74.88
2018-03-07T01:56:43.338Z,74.79
2018-03-07T01:57:37.817Z,75.74
2018-03-07T01:57:38.414Z,75.55
2018-03-07T01:57:39.013Z,75.26
2018-03-07T01:57:39.614Z,75.36
2018-03-07T01:57:40.212Z,75.17
2018-03-07T01:57:40.812Z,75.93
2018-03-07T01:57:41.415Z,75.07
2018-03-07T01:57:42.013Z,75.64
2018-03-07T01:58:36.492Z,73.75
2018-03-07T01:58:37.091Z,73.47
2018-03-07T01:58:37.689Z,73.75
2018-03-07T01:58:38.289Z,73.56
2018-03-07T01:58:38.889Z,73.47
2018-03-07T01:58:39.492Z,73.56
2018-03-07T01:58:40.088Z,73.47
2018-03-07T01:58:40.689Z,73.56
2018-03-07T01:59:34.145Z,72.99
2018-03-07T01:59:34.742Z,72.90
2018-03-07T01:59:35.342Z,72.99
2018-03-07T01:59:35.942Z,72.99
2018-03-07T01:59:36.543Z,72.90
2018-03-07T01:59:37.140Z,73.09
2018-03-07T01:59:37.741Z,72.71
2018-03-07T01:59:38.342Z,73.09
2018-03-07T02:00:32.820Z,71.30
2018-03-07T02:00:33.417Z,71.58
2018-03-07T02:00:34.017Z,71.67
2018-03-07T02:00:34.617Z,71.77
2018-03-07T02:00:35.216Z,71.77
2018-03-07T02:00:35.816Z,71.58
2018-03-07T02:00:36.417Z,71.58
2018-03-07T02:00:37.015Z,71.77
2018-03-07T02:01:31.520Z,71.61
2018-03-07T02:01:32.097Z,71.48
2018-03-07T02:01:32.694Z,71.71
2018-03-07T02:01:33.292Z,71.39
2018-03-07T02:01:33.892Z,71.71
2018-03-07T02:01:34.491Z,71.67
2018-03-07T02:01:35.093Z,71.61
2018-03-07T02:01:35.692Z,71.71
2018-03-07T02:02:29.149Z,70.39
2018-03-07T02:02:29.746Z,70.29
2018-03-07T02:02:30.345Z,70.29
2018-03-07T02:02:30.945Z,70.39
2018-03-07T02:02:31.545Z,70.39
2018-03-07T02:02:32.144Z,70.29
2018-03-07T02:02:32.745Z,70.39
2018-03-07T02:02:33.344Z,70.10
2018-03-07T02:03:27.823Z,70.95
2018-03-07T02:03:28.424Z,71.04
2018-03-07T02:03:29.020Z,71.23
2018-03-07T02:03:29.621Z,71.04
2018-03-07T02:03:30.219Z,71.14
2018-03-07T02:03:30.819Z,70.86
2018-03-07T02:03:31.420Z,70.76
2018-03-07T02:03:32.019Z,70.95
2018-03-07T02:04:25.476Z,72.28
2018-03-07T02:04:26.074Z,72.28
2018-03-07T02:04:26.672Z,71.90
2018-03-07T02:04:27.275Z,72.09
2018-03-07T02:04:27.874Z,72.37
2018-03-07T02:04:28.471Z,72.18
2018-03-07T02:04:29.072Z,72.28
2018-03-07T02:04:29.672Z,72.75
2018-03-07T02:05:23.127Z,74.17
2018-03-07T02:05:23.728Z,74.36
2018-03-07T02:05:24.324Z,74.17
2018-03-07T02:05:24.926Z,74.17
2018-03-07T02:05:25.524Z,74.17
2018-03-07T02:05:26.128Z,74.17
2018-03-07T02:05:26.724Z,74.26
2018-03-07T02:05:27.324Z,74.36
2018-03-07T02:06:20.803Z,75.96
2018-03-07T02:06:21.377Z,75.87
2018-03-07T02:06:21.976Z,75.87
2018-03-07T02:06:22.582Z,76.15
2018-03-07T02:06:23.175Z,76.06
2018-03-07T02:06:23.776Z,76.15
2018-03-07T02:06:24.375Z,76.25
2018-03-07T02:06:24.975Z,76.06
2018-03-07T02:07:19.454Z,77.10
2018-03-07T02:07:20.053Z,77.29
2018-03-07T02:07:20.651Z,76.25
2018-03-07T02:07:21.252Z,76.91
2018-03-07T02:07:21.851Z,77.01
2018-03-07T02:07:22.450Z,76.25
2018-03-07T02:07:23.051Z,77.29
2018-03-07T02:07:23.654Z,76.91
2018-03-07T02:08:17.107Z,77.10
2018-03-07T02:08:17.714Z,76.91
2018-03-07T02:08:18.305Z,77.10
2018-03-07T02:08:18.908Z,77.48
2018-03-07T02:08:19.505Z,77.58
2018-03-07T02:08:20.103Z,77.58
2018-03-07T02:08:20.712Z,77.58
2018-03-07T02:08:21.303Z,77.29
2018-03-07T02:09:14.757Z,78.61
2018-03-07T02:09:15.356Z,78.42
2018-03-07T02:09:15.955Z,78.33
2018-03-07T02:09:16.555Z,78.33
2018-03-07T02:09:17.154Z,78.33
2018-03-07T02:09:17.756Z,78.33
2018-03-07T02:09:18.354Z,78.05
2018-03-07T02:09:18.955Z,78.14
2018-03-07T02:10:12.409Z,80.41
2018-03-07T02:10:13.008Z,80.22
2018-03-07T02:10:13.606Z,80.51
2018-03-07T02:10:14.208Z,80.69
2018-03-07T02:10:14.807Z,80.60
2018-03-07T02:10:15.407Z,80.41
2018-03-07T02:10:16.005Z,80.41
2018-03-07T02:10:16.605Z,80.60
2018-03-07T02:11:11.149Z,82.31
2018-03-07T02:11:11.690Z,82.50
2018-03-07T02:11:12.282Z,82.50
2018-03-07T02:11:12.882Z,82.50
2018-03-07T02:11:13.482Z,82.21
2018-03-07T02:11:14.082Z,82.21
2018-03-07T02:11:14.681Z,82.31
2018-03-07T02:11:15.282Z,82.68
2018-03-07T02:12:09.792Z,83.34
2018-03-07T02:12:10.359Z,83.15
2018-03-07T02:12:10.957Z,83.44
2018-03-07T02:12:11.557Z,83.53
2018-03-07T02:12:12.157Z,83.25
2018-03-07T02:12:12.758Z,83.63
2018-03-07T02:12:13.359Z,83.63
2018-03-07T02:12:13.956Z,83.63
2018-03-07T02:13:08.437Z,84.95
2018-03-07T02:13:09.034Z,84.95
2018-03-07T02:13:09.634Z,84.77
2018-03-07T02:13:10.234Z,84.77
2018-03-07T02:13:10.833Z,84.67
2018-03-07T02:13:11.432Z,85.33
2018-03-07T02:13:12.033Z,84.67
2018-03-07T02:13:12.644Z,85.42
2018-03-07T02:14:07.112Z,85.71
2018-03-07T02:14:07.710Z,86.18
2018-03-07T02:14:08.309Z,86.09
2018-03-07T02:14:08.909Z,86.09
2018-03-07T02:14:09.512Z,86.28
2018-03-07T02:14:10.107Z,86.47
2018-03-07T02:14:10.706Z,86.28
2018-03-07T02:14:11.307Z,86.37
2018-03-07T02:15:05.788Z,87.04
2018-03-07T02:15:06.389Z,87.23
2018-03-07T02:15:06.983Z,87.13
2018-03-07T02:15:07.587Z,87.04
2018-03-07T02:15:08.183Z,86.94
2018-03-07T02:15:08.781Z,87.13
2018-03-07T02:15:09.382Z,87.13
2018-03-07T02:15:09.981Z,87.41
2018-03-07T02:16:04.464Z,88.36
2018-03-07T02:16:05.062Z,88.17
2018-03-07T02:16:05.662Z,88.07
2018-03-07T02:16:06.262Z,88.36
2018-03-07T02:16:06.860Z,88.45
2018-03-07T02:16:07.460Z,88.45
2018-03-07T02:16:08.060Z,88.26
2018-03-07T02:16:08.659Z,88.45
2018-03-07T02:17:03.139Z,87.60
2018-03-07T02:17:03.737Z,87.88
2018-03-07T02:17:04.336Z,88.17
2018-03-07T02:17:04.936Z,88.26
2018-03-07T02:17:05.536Z,87.88
2018-03-07T02:17:06.136Z,87.88
2018-03-07T02:17:06.736Z,87.88
2018-03-07T02:17:07.336Z,88.07
2018-03-07T02:18:00.825Z,88.83
2018-03-07T02:18:01.389Z,88.74
2018-03-07T02:18:01.989Z,88.83
2018-03-07T02:18:02.591Z,88.83
2018-03-07T02:18:03.187Z,88.93
2018-03-07T02:18:03.788Z,88.74
2018-03-07T02:18:04.388Z,89.02
2018-03-07T02:18:04.990Z,88.93
2018-03-07T02:18:58.443Z,90.16
2018-03-07T02:18:59.041Z,90.16
2018-03-07T02:18:59.640Z,90.16
2018-03-07T02:19:00.239Z,89.78
2018-03-07T02:19:00.839Z,90.16
2018-03-07T02:19:01.441Z,90.34
2018-03-07T02:19:02.058Z,89.78
2018-03-07T02:19:02.639Z,90.06
2018-03-07T02:19:57.118Z,90.82
2018-03-07T02:19:57.716Z,90.91
2018-03-07T02:19:58.315Z,91.20
2018-03-07T02:19:58.915Z,91.20
2018-03-07T02:19:59.517Z,91.29
2018-03-07T02:20:00.114Z,91.01
2018-03-07T02:20:00.714Z,91.01
2018-03-07T02:20:01.314Z,91.48
2018-03-07T02:20:54.772Z,92.61
2018-03-07T02:20:55.368Z,92.05
2018-03-07T02:20:55.967Z,91.96
2018-03-07T02:20:56.567Z,92.61
2018-03-07T02:20:57.167Z,92.52
2018-03-07T02:20:57.766Z,92.52
2018-03-07T02:20:58.371Z,92.14
2018-03-07T02:20:58.966Z,92.52
2018-03-07T02:21:53.444Z,92.52
2018-03-07T02:21:54.042Z,92.33
2018-03-07T02:21:54.642Z,92.61
2018-03-07T02:21:55.242Z,92.43
2018-03-07T02:21:55.848Z,92.43
2018-03-07T02:21:56.442Z,92.61
2018-03-07T02:21:57.041Z,92.71
2018-03-07T02:21:57.641Z,92.80
2018-03-07T02:22:52.120Z,94.23
2018-03-07T02:22:52.722Z,94.04
2018-03-07T02:22:53.317Z,94.04
2018-03-07T02:22:53.921Z,93.66
2018-03-07T02:22:54.516Z,94.04
2018-03-07T02:22:55.116Z,94.13
2018-03-07T02:22:55.715Z,93.75
2018-03-07T02:22:56.316Z,94.23
2018-03-07T02:23:49.799Z,94.51
2018-03-07T02:23:50.371Z,94.32
2018-03-07T02:23:50.972Z,94.60
2018-03-07T02:23:51.575Z,94.51
2018-03-07T02:23:52.170Z,94.51
2018-03-07T02:23:52.771Z,94.51
2018-03-07T02:23:53.375Z,94.51
2018-03-07T02:23:53.970Z,94.42
2018-03-07T02:24:48.447Z,93.75
2018-03-07T02:24:49.046Z,93.85
2018-03-07T02:24:49.651Z,93.66
2018-03-07T02:24:50.245Z,93.85
2018-03-07T02:24:50.845Z,93.75
2018-03-07T02:24:51.446Z,93.85
2018-03-07T02:24:52.045Z,94.04
2018-03-07T02:24:52.644Z,93.75
2018-03-07T02:25:47.125Z,93.18
2018-03-07T02:25:47.726Z,93.09
2018-03-07T02:25:48.321Z,93.09
2018-03-07T02:25:48.920Z,93.09
2018-03-07T02:25:49.520Z,93.09
2018-03-07T02:25:50.122Z,93.09
2018-03-07T02:25:50.720Z,93.09
2018-03-07T02:25:51.319Z,93.09
2018-03-07T02:26:44.778Z,93.85
2018-03-07T02:26:45.374Z,93.85
2018-03-07T02:26:45.976Z,93.85
2018-03-07T02:26:46.571Z,93.85
2018-03-07T02:26:47.170Z,93.85
2018-03-07T02:26:47.772Z,94.04
2018-03-07T02:26:48.370Z,93.56
2018-03-07T02:26:48.970Z,93.56
2018-03-07T02:27:43.451Z,94.32
2018-03-07T02:27:44.049Z,94.60
2018-03-07T02:27:44.652Z,94.51
2018-03-07T02:27:45.248Z,94.51
2018-03-07T02:27:45.847Z,94.51
2018-03-07T02:27:46.450Z,94.70
2018-03-07T02:27:47.048Z,94.42
2018-03-07T02:27:47.648Z,94.70
2018-03-07T02:28:42.240Z,95.55
2018-03-07T02:28:42.756Z,95.64
2018-03-07T02:28:43.357Z,95.55
2018-03-07T02:28:43.956Z,95.55
2018-03-07T02:28:44.570Z,95.55
2018-03-07T02:28:45.172Z,95.74
2018-03-07T02:28:45.755Z,95.74
2018-03-07T02:28:46.374Z,95.55
2018-03-07T02:29:39.882Z,95.45
2018-03-07T02:29:40.486Z,95.74
2018-03-07T02:29:41.082Z,95.64
2018-03-07T02:29:41.677Z,95.36
2018-03-07T02:29:42.278Z,95.74
2018-03-07T02:29:42.875Z,95.74
2018-03-07T02:29:43.478Z,95.55
2018-03-07T02:29:44.077Z,95.55
2018-03-07T02:30:37.534Z,95.07
2018-03-07T02:30:38.132Z,94.89
2018-03-07T02:30:38.731Z,95.17
2018-03-07T02:30:39.335Z,94.89
2018-03-07T02:30:39.931Z,95.07
2018-03-07T02:30:40.529Z,95.07
2018-03-07T02:30:41.129Z,95.36
2018-03-07T02:30:41.729Z,95.17
2018-03-07T02:31:36.209Z,96.21
2018-03-07T02:31:36.807Z,96.21
2018-03-07T02:31:37.413Z,96.12
2018-03-07T02:31:38.005Z,96.31
2018-03-07T02:31:38.604Z,96.31
2018-03-07T02:31:39.203Z,96.12
2018-03-07T02:31:39.804Z,96.40
2018-03-07T02:31:40.407Z,96.45
2018-03-07T02:32:33.862Z,96.12
2018-03-07T02:32:34.458Z,96.59
2018-03-07T02:32:35.057Z,96.54
2018-03-07T02:32:35.658Z,96.12
2018-03-07T02:32:36.259Z,96.40
2018-03-07T02:32:36.858Z,96.40
2018-03-07T02:32:37.458Z,96.69
2018-03-07T02:32:38.067Z,96.50
2018-03-07T02:33:31.513Z,95.55
2018-03-07T02:33:32.110Z,95.83
2018-03-07T02:33:32.709Z,95.45
2018-03-07T02:33:33.309Z,95.83
2018-03-07T02:33:33.910Z,95.36
2018-03-07T02:33:34.509Z,95.45
2018-03-07T02:33:35.108Z,95.64
2018-03-07T02:33:35.709Z,95.78
2018-03-07T02:34:29.207Z,94.98
2018-03-07T02:34:29.754Z,94.98
2018-03-07T02:34:30.352Z,95.03
2018-03-07T02:34:30.956Z,95.36
2018-03-07T02:34:31.554Z,95.21
2018-03-07T02:34:32.153Z,94.98
2018-03-07T02:34:32.755Z,95.03
2018-03-07T02:34:33.350Z,94.98
2018-03-07T02:35:27.832Z,96.45
2018-03-07T02:35:28.428Z,96.12
2018-03-07T02:35:29.029Z,96.59
2018-03-07T02:35:29.629Z,96.54
2018-03-07T02:35:30.229Z,96.64
2018-03-07T02:35:30.827Z,96.59
2018-03-07T02:35:31.428Z,96.16
2018-03-07T02:35:32.028Z,96.12
2018-03-07T02:36:25.521Z,96.50
2018-03-07T02:36:26.085Z,96.73
2018-03-07T02:36:26.680Z,96.64
2018-03-07T02:36:27.281Z,96.73
2018-03-07T02:36:27.888Z,96.73
2018-03-07T02:36:28.479Z,96.92
2018-03-07T02:36:29.079Z,96.97
2018-03-07T02:36:29.680Z,97.06
2018-03-07T02:37:24.158Z,97.20
2018-03-07T02:37:24.761Z,97.06
2018-03-07T02:37:25.361Z,97.25
2018-03-07T02:37:25.975Z,97.30
2018-03-07T02:37:26.555Z,97.02
2018-03-07T02:37:27.157Z,97.20
2018-03-07T02:37:27.756Z,97.44
2018-03-07T02:37:28.354Z,96.97
2018-03-07T02:38:22.833Z,98.82
2018-03-07T02:38:23.432Z,98.82
2018-03-07T02:38:24.032Z,98.39
2018-03-07T02:38:24.630Z,98.53
2018-03-07T02:38:25.233Z,98.72
2018-03-07T02:38:25.830Z,98.48
2018-03-07T02:38:26.429Z,98.53
2018-03-07T02:38:27.028Z,98.48
2018-03-07T02:39:20.487Z,98.91
2018-03-07T02:39:21.084Z,99.01
2018-03-07T02:39:21.683Z,98.82
2018-03-07T02:39:22.283Z,98.77
2018-03-07T02:39:22.884Z,98.77
2018-03-07T02:39:23.484Z,98.82
2018-03-07T02:39:24.082Z,98.58
2018-03-07T02:39:24.682Z,98.67
2018-03-07T02:57:23.296Z,95.55
2018-03-07T02:57:23.866Z,95.93
2018-03-07T02:57:24.466Z,95.74
2018-03-07T02:57:25.066Z,95.74
2018-03-07T02:57:25.664Z,95.74
2018-03-07T02:57:26.269Z,95.74
2018-03-07T02:57:26.867Z,95.74
2018-03-07T02:57:27.465Z,95.74
2018-03-07T02:58:20.920Z,95.74
2018-03-07T02:58:21.518Z,95.93
2018-03-07T02:58:22.119Z,95.93
2018-03-07T02:58:22.717Z,95.74
2018-03-07T02:58:23.315Z,95.74
2018-03-07T02:58:23.916Z,95.93
2018-03-07T02:58:24.518Z,95.74
2018-03-07T02:58:25.115Z,95.83
2018-03-07T02:59:19.599Z,95.17
2018-03-07T02:59:20.192Z,95.07
2018-03-07T02:59:20.793Z,95.17
2018-03-07T02:59:21.392Z,94.98
2018-03-07T02:59:21.993Z,94.98
2018-03-07T02:59:22.591Z,95.17
2018-03-07T02:59:23.191Z,95.17
2018-03-07T02:59:23.792Z,95.17
2018-03-07T03:00:18.272Z,95.45
2018-03-07T03:00:18.870Z,95.26
2018-03-07T03:00:19.468Z,95.36
2018-03-07T03:00:20.068Z,95.45
2018-03-07T03:00:20.671Z,95.45
2018-03-07T03:00:21.270Z,95.17
2018-03-07T03:00:21.866Z,95.07
2018-03-07T03:00:22.466Z,94.98
2018-03-07T03:01:16.983Z,94.98
2018-03-07T03:01:17.545Z,95.36
2018-03-07T03:01:18.144Z,95.45
2018-03-07T03:01:18.743Z,95.17
2018-03-07T03:01:19.348Z,94.98
2018-03-07T03:01:19.959Z,95.45
2018-03-07T03:01:20.543Z,94.98
2018-03-07T03:01:21.143Z,95.17
2018-03-07T03:02:14.601Z,94.98
2018-03-07T03:02:15.206Z,95.17
2018-03-07T03:02:15.798Z,95.17
2018-03-07T03:02:16.397Z,95.17
2018-03-07T03:02:16.996Z,94.98
2018-03-07T03:02:17.596Z,94.98
2018-03-07T03:02:18.196Z,94.98
2018-03-07T03:02:18.796Z,95.17
2018-03-07T03:03:12.253Z,94.89
2018-03-07T03:03:12.851Z,94.32
2018-03-07T03:03:13.450Z,94.60
2018-03-07T03:03:14.049Z,94.79
2018-03-07T03:03:14.650Z,94.60
2018-03-07T03:03:15.249Z,94.60
2018-03-07T03:03:15.850Z,94.60
2018-03-07T03:03:16.449Z,94.23
2018-03-07T03:04:10.927Z,93.18
2018-03-07T03:04:11.525Z,93.09
2018-03-07T03:04:12.124Z,93.47
2018-03-07T03:04:12.742Z,92.71
2018-03-07T03:04:13.324Z,93.47
2018-03-07T03:04:13.924Z,92.99
2018-03-07T03:04:14.527Z,92.99
2018-03-07T03:04:15.125Z,93.09
2018-03-07T03:05:08.581Z,93.09
2018-03-07T03:05:09.178Z,92.80
2018-03-07T03:05:09.778Z,93.28
2018-03-07T03:05:10.377Z,93.18
2018-03-07T03:05:10.977Z,93.09
2018-03-07T03:05:11.577Z,93.09
2018-03-07T03:05:12.176Z,92.90
2018-03-07T03:05:12.776Z,93.09
2018-03-07T03:06:07.255Z,92.71
2018-03-07T03:06:07.853Z,92.90
2018-03-07T03:06:08.454Z,92.99
2018-03-07T03:06:09.053Z,92.90
2018-03-07T03:06:09.653Z,92.52
2018-03-07T03:06:10.253Z,92.52
2018-03-07T03:06:10.852Z,93.09
2018-03-07T03:06:11.453Z,92.43
2018-03-07T03:07:05.965Z,92.24
2018-03-07T03:07:06.526Z,91.77
2018-03-07T03:07:07.128Z,91.77
2018-03-07T03:07:07.729Z,91.96
2018-03-07T03:07:08.327Z,91.67
2018-03-07T03:07:08.926Z,91.96
2018-03-07T03:07:09.526Z,91.67
2018-03-07T03:07:10.125Z,91.96
2018-03-07T03:08:04.608Z,90.91
2018-03-07T03:08:05.204Z,90.53
2018-03-07T03:08:05.803Z,90.53
2018-03-07T03:08:06.403Z,90.91
2018-03-07T03:08:07.004Z,90.53
2018-03-07T03:08:07.603Z,90.82
2018-03-07T03:08:08.202Z,90.82
2018-03-07T03:08:08.803Z,90.91
2018-03-07T03:09:02.260Z,90.25
2018-03-07T03:09:02.858Z,90.25
2018-03-07T03:09:03.456Z,90.34
2018-03-07T03:09:04.058Z,90.06
2018-03-07T03:09:04.658Z,90.16
2018-03-07T03:09:05.264Z,89.78
2018-03-07T03:09:05.855Z,90.06
2018-03-07T03:09:06.455Z,90.25
2018-03-07T03:10:00.934Z,89.69
2018-03-07T03:10:01.533Z,89.69
2018-03-07T03:10:02.140Z,89.59
2018-03-07T03:10:02.733Z,90.16
2018-03-07T03:10:03.332Z,89.69
2018-03-07T03:10:03.937Z,90.16
2018-03-07T03:10:04.530Z,89.87
2018-03-07T03:10:05.130Z,90.34
2018-03-07T03:10:59.610Z,87.98
2018-03-07T03:11:00.207Z,88.26
2018-03-07T03:11:00.806Z,88.17
2018-03-07T03:11:01.408Z,88.26
2018-03-07T03:11:02.007Z,88.45
2018-03-07T03:11:02.607Z,88.45
2018-03-07T03:11:03.207Z,88.45
2018-03-07T03:11:03.806Z,88.26
2018-03-07T03:12:09.993Z,87.04
2018-03-07T03:12:10.557Z,87.23
2018-03-07T03:12:11.157Z,87.04
2018-03-07T03:12:11.755Z,87.23
2018-03-07T03:12:12.356Z,87.23
2018-03-07T03:12:12.958Z,87.04
2018-03-07T03:12:13.558Z,87.23
2018-03-07T03:12:14.156Z,87.13
2018-03-07T03:13:07.611Z,85.61
2018-03-07T03:13:08.210Z,85.61
2018-03-07T03:13:08.810Z,85.71
2018-03-07T03:13:09.410Z,85.61
2018-03-07T03:13:10.010Z,85.71
2018-03-07T03:13:10.624Z,85.71
2018-03-07T03:13:11.209Z,85.71
2018-03-07T03:13:11.809Z,85.71
2018-03-07T03:14:05.269Z,86.18
2018-03-07T03:14:05.862Z,86.37
2018-03-07T03:14:06.460Z,86.37
2018-03-07T03:14:07.063Z,86.56
2018-03-07T03:14:07.661Z,86.37
2018-03-07T03:14:08.261Z,86.37
2018-03-07T03:14:08.869Z,86.37
2018-03-07T03:14:09.461Z,86.56
2018-03-07T03:15:03.939Z,85.80
2018-03-07T03:15:04.535Z,86.28
2018-03-07T03:15:05.136Z,86.09
2018-03-07T03:15:05.735Z,85.99
2018-03-07T03:15:06.334Z,86.28
2018-03-07T03:15:06.933Z,86.28
2018-03-07T03:15:07.535Z,86.28
2018-03-07T03:15:08.134Z,86.28
2018-03-07T03:16:02.677Z,85.80
2018-03-07T03:16:03.211Z,85.61
2018-03-07T03:16:03.812Z,85.61
2018-03-07T03:16:04.411Z,85.61
2018-03-07T03:16:05.012Z,85.52
2018-03-07T03:16:05.611Z,85.61
2018-03-07T03:16:06.210Z,85.52
2018-03-07T03:16:06.811Z,85.52
2018-03-07T03:17:00.270Z,86.18
2018-03-07T03:17:00.863Z,86.09
2018-03-07T03:17:01.464Z,86.18
2018-03-07T03:17:02.067Z,86.28
2018-03-07T03:17:02.666Z,86.28
2018-03-07T03:17:03.264Z,86.09
2018-03-07T03:17:03.863Z,86.28
2018-03-07T03:17:04.464Z,86.18
2018-03-07T03:17:58.969Z,87.04
2018-03-07T03:17:59.539Z,87.04
2018-03-07T03:18:00.149Z,87.04
2018-03-07T03:18:00.737Z,86.85
2018-03-07T03:18:01.338Z,86.75
2018-03-07T03:18:01.938Z,86.85
2018-03-07T03:18:02.537Z,87.04
2018-03-07T03:18:03.143Z,86.75
2018-03-07T03:18:56.595Z,87.13
2018-03-07T03:18:57.192Z,87.13
2018-03-07T03:18:57.790Z,87.41
2018-03-07T03:18:58.399Z,87.13
2018-03-07T03:18:58.990Z,87.23
2018-03-07T03:18:59.591Z,87.04
2018-03-07T03:19:00.190Z,87.04
2018-03-07T03:19:00.791Z,86.94
2018-03-07T03:19:54.247Z,86.37
2018-03-07T03:19:54.843Z,86.94
2018-03-07T03:19:55.442Z,86.94
2018-03-07T03:19:56.044Z,86.94
2018-03-07T03:19:56.642Z,86.94
2018-03-07T03:19:57.242Z,87.13
2018-03-07T03:19:57.842Z,87.13
2018-03-07T03:19:58.441Z,86.94
2018-03-07T03:20:52.921Z,86.94
2018-03-07T03:20:53.518Z,86.85
2018-03-07T03:20:54.118Z,87.13
2018-03-07T03:20:54.717Z,86.85
2018-03-07T03:20:55.318Z,87.13
2018-03-07T03:20:55.918Z,86.85
2018-03-07T03:20:56.517Z,87.04
2018-03-07T03:20:57.116Z,86.94
2018-03-07T03:21:51.596Z,87.32
2018-03-07T03:21:52.193Z,87.41
2018-03-07T03:21:52.794Z,87.13
2018-03-07T03:21:53.393Z,87.41
2018-03-07T03:21:53.992Z,87.13
2018-03-07T03:21:54.594Z,87.04
2018-03-07T03:21:55.192Z,87.23
2018-03-07T03:21:55.792Z,87.23
2018-03-07T03:22:49.283Z,87.98
2018-03-07T03:22:49.849Z,88.07
2018-03-07T03:22:50.449Z,87.70
2018-03-07T03:22:51.048Z,87.70
2018-03-07T03:22:51.645Z,87.88
2018-03-07T03:22:52.246Z,88.07
2018-03-07T03:22:52.846Z,87.60
2018-03-07T03:22:53.444Z,87.60
2018-03-07T03:23:46.900Z,88.83
2018-03-07T03:23:47.500Z,88.93
2018-03-07T03:23:48.097Z,88.83
2018-03-07T03:23:48.697Z,88.93
2018-03-07T03:23:49.296Z,88.83
2018-03-07T03:23:49.900Z,89.31
2018-03-07T03:23:50.495Z,88.64
2018-03-07T03:23:51.096Z,88.93
2018-03-07T03:24:44.553Z,89.21
2018-03-07T03:24:45.151Z,89.02
2018-03-07T03:24:45.748Z,89.02
2018-03-07T03:24:46.349Z,89.02
2018-03-07T03:24:46.949Z,89.02
2018-03-07T03:24:47.549Z,89.40
2018-03-07T03:24:48.149Z,89.40
2018-03-07T03:24:48.748Z,88.93
2018-03-07T03:25:42.207Z,89.50
2018-03-07T03:25:42.801Z,89.59
2018-03-07T03:25:43.400Z,89.40
2018-03-07T03:25:44.001Z,89.12
2018-03-07T03:25:44.599Z,89.12
2018-03-07T03:25:45.201Z,89.50
2018-03-07T03:25:45.799Z,89.21
2018-03-07T03:25:46.401Z,89.21
2018-03-07T03:26:40.879Z,89.69
2018-03-07T03:26:41.475Z,89.78
2018-03-07T03:26:42.075Z,89.59
2018-03-07T03:26:42.675Z,89.97
2018-03-07T03:26:43.273Z,89.69
2018-03-07T03:26:43.877Z,89.78
2018-03-07T03:26:44.474Z,89.97
2018-03-07T03:26:45.076Z,89.97
2018-03-07T03:27:38.531Z,89.50
2018-03-07T03:27:39.129Z,89.59
2018-03-07T03:27:39.727Z,89.59
2018-03-07T03:27:40.330Z,89.69
2018-03-07T03:27:40.929Z,89.59
2018-03-07T03:27:41.531Z,89.78
2018-03-07T03:27:42.127Z,89.50
2018-03-07T03:27:42.728Z,89.69
2018-03-07T03:28:37.238Z,89.97
2018-03-07T03:28:37.802Z,89.78
2018-03-07T03:28:38.402Z,89.97
2018-03-07T03:28:39.003Z,89.78
2018-03-07T03:28:39.602Z,89.78
2018-03-07T03:28:40.203Z,89.87
2018-03-07T03:28:40.802Z,89.40
2018-03-07T03:28:41.401Z,89.31
2018-03-07T03:29:34.857Z,90.34
2018-03-07T03:29:35.456Z,90.44
2018-03-07T03:29:36.055Z,90.34
2018-03-07T03:29:36.657Z,90.53
2018-03-07T03:29:37.255Z,90.06
2018-03-07T03:29:37.855Z,90.34
2018-03-07T03:29:38.458Z,90.06
2018-03-07T03:29:39.054Z,90.25
2018-03-07T03:30:33.533Z,91.48
2018-03-07T03:30:34.130Z,91.29
2018-03-07T03:30:34.730Z,91.10
2018-03-07T03:30:35.331Z,91.20
2018-03-07T03:30:35.930Z,91.20
2018-03-07T03:30:36.530Z,91.20
2018-03-07T03:30:37.129Z,91.20
2018-03-07T03:30:37.748Z,91.20
2018-03-07T03:31:31.279Z,91.39
2018-03-07T03:31:31.784Z,91.29
2018-03-07T03:31:32.383Z,91.20
2018-03-07T03:31:32.983Z,91.01
2018-03-07T03:31:33.583Z,91.20
2018-03-07T03:31:34.184Z,90.91
2018-03-07T03:31:34.783Z,91.01
2018-03-07T03:31:35.383Z,91.29
2018-03-07T03:32:28.838Z,91.86
2018-03-07T03:32:29.437Z,91.77
2018-03-07T03:32:30.036Z,91.86
2018-03-07T03:32:30.636Z,91.77
2018-03-07T03:32:31.234Z,91.86
2018-03-07T03:32:31.835Z,91.77
2018-03-07T03:32:32.437Z,91.77
2018-03-07T03:32:33.033Z,91.86
2018-03-07T03:33:27.540Z,91.67
2018-03-07T03:33:28.109Z,91.77
2018-03-07T03:33:28.709Z,91.86
2018-03-07T03:33:29.310Z,91.86
2018-03-07T03:33:29.909Z,91.67
2018-03-07T03:33:30.508Z,91.77
2018-03-07T03:33:31.108Z,91.96
2018-03-07T03:33:31.709Z,92.05
2018-03-07T03:34:25.165Z,91.10
2018-03-07T03:34:25.780Z,91.01
2018-03-07T03:34:26.362Z,91.48
2018-03-07T03:34:26.962Z,91.48